createdAt,value
2019-05-05T00:01:31.658Z,5.20
2019-05-05T00:06:27.878Z,5.00
2019-05-05T00:11:41.055Z,5.23
2019-05-05T00:16:41.656Z,4.50
2019-05-05T00:21:37.683Z,4.63
2019-05-05T00:26:36.811Z,5.00
2019-05-05T00:31:34.743Z,4.57
2019-05-05T00:36:30.854Z,5.30
2019-05-05T00:41:26.819Z,5.10
2019-05-05T00:46:30.578Z,5.10
2019-05-05T00:51:26.611Z,5.97
2019-05-05T00:56:25.074Z,5.40
2019-05-05T01:01:44.720Z,6.43
2019-05-05T01:06:40.688Z,5.90
2019-05-05T01:11:36.713Z,6.10
2019-05-05T01:16:32.738Z,7.37
2019-05-05T01:21:28.761Z,6.07
2019-05-05T01:26:26.924Z,5.70
2019-05-05T01:31:25.221Z,5.90
2019-05-05T01:36:21.370Z,6.10
2019-05-05T01:41:19.410Z,6.00
2019-05-05T01:46:15.343Z,6.90
2019-05-05T01:51:11.271Z,6.10
2019-05-05T01:56:20.007Z,8.07
2019-05-05T02:01:15.935Z,7.67
2019-05-05T02:06:14.123Z,5.97
2019-05-05T02:11:09.893Z,7.27
2019-05-05T02:16:05.820Z,6.80
2019-05-05T02:21:05.152Z,6.60
2019-05-05T02:26:04.586Z,5.97
2019-05-05T02:31:16.628Z,6.40
2019-05-05T02:36:15.732Z,7.00
2019-05-05T02:41:11.276Z,6.20
2019-05-05T02:46:14.450Z,6.00
2019-05-05T02:51:14.803Z,4.80
2019-05-05T03:01:37.069Z,5.50
2019-05-05T03:06:34.322Z,5.37
2019-05-05T03:11:31.887Z,5.40
2019-05-05T03:16:31.649Z,6.33
2019-05-05T03:21:27.688Z,5.20
2019-05-05T03:26:25.685Z,5.73
2019-05-05T03:31:22.078Z,6.70
2019-05-05T03:36:18.104Z,6.43
2019-05-05T03:41:25.085Z,5.93
2019-05-05T03:46:21.110Z,6.27
2019-05-05T03:51:20.970Z,6.30
2019-05-05T03:56:24.159Z,5.67
2019-05-05T04:01:56.317Z,6.90
2019-05-05T04:06:57.419Z,6.07
2019-05-05T04:11:54.078Z,5.90
2019-05-05T04:16:55.016Z,6.20
2019-05-05T04:21:50.942Z,7.40
2019-05-05T04:26:47.552Z,6.90
2019-05-05T04:31:43.604Z,6.53
2019-05-05T04:36:39.653Z,7.17
2019-05-05T04:41:35.593Z,6.53
2019-05-05T04:46:33.715Z,6.30
2019-05-05T04:51:49.888Z,6.60
2019-05-05T04:56:44.805Z,6.00
2019-05-05T05:01:41.038Z,6.30
2019-05-05T05:06:38.876Z,7.37
2019-05-05T05:11:34.808Z,7.87
2019-05-05T05:16:30.843Z,6.80
2019-05-05T05:21:26.761Z,7.73
2019-05-05T05:26:29.168Z,8.40
2019-05-05T05:31:25.210Z,8.93
2019-05-05T05:36:21.133Z,9.50
2019-05-05T05:41:19.031Z,10.33
2019-05-05T05:46:28.826Z,8.00
2019-05-05T05:51:24.748Z,9.07
2019-05-05T05:56:24.951Z,8.20
2019-05-05T06:01:23.937Z,8.13
2019-05-05T06:06:19.916Z,7.30
2019-05-05T06:11:15.842Z,7.23
2019-05-05T06:16:11.770Z,7.20
2019-05-05T06:21:07.833Z,8.53
2019-05-05T06:26:06.842Z,8.17
2019-05-05T06:31:01.694Z,8.13
2019-05-05T06:35:57.620Z,9.47
2019-05-05T06:40:58.637Z,9.30
2019-05-05T06:45:59.233Z,8.87
2019-05-05T06:50:55.158Z,8.83
2019-05-05T06:55:52.436Z,7.67
2019-05-05T07:00:49.005Z,8.00
2019-05-05T07:05:44.939Z,7.53
2019-05-05T07:10:40.861Z,7.47
2019-05-05T07:15:36.812Z,8.13
2019-05-05T07:20:34.646Z,8.10
2019-05-05T07:25:42.172Z,7.77
2019-05-05T07:30:28.407Z,8.30
2019-05-05T07:35:26.287Z,7.20
2019-05-05T07:40:24.101Z,6.80
2019-05-05T07:45:25.154Z,6.67
2019-05-05T07:50:28.521Z,7.57
2019-05-05T07:55:15.888Z,6.83
2019-05-05T08:00:12.216Z,7.80
2019-05-05T08:05:20.189Z,6.63
2019-05-05T08:10:16.979Z,6.60
2019-05-05T08:15:15.620Z,6.43
2019-05-05T08:20:19.349Z,9.03
2019-05-05T08:25:16.836Z,5.33
2019-05-05T08:30:15.072Z,6.70
2019-05-05T08:35:11.245Z,7.40
2019-05-05T08:40:07.420Z,7.03
2019-05-05T08:45:04.668Z,7.00
2019-05-05T08:50:00.874Z,6.30
2019-05-05T08:54:56.895Z,6.17
2019-05-05T08:59:54.511Z,7.50
2019-05-05T09:04:50.644Z,7.73
2019-05-05T09:09:46.577Z,7.73
2019-05-05T09:14:44.756Z,6.43
2019-05-05T09:19:40.345Z,7.60
2019-05-05T09:24:41.192Z,8.20
2019-05-05T09:29:39.016Z,9.20
2019-05-05T09:34:34.937Z,6.93
2019-05-05T09:39:31.776Z,5.40
2019-05-05T09:44:27.805Z,7.20
2019-05-05T09:49:24.611Z,5.37
2019-05-05T09:54:20.866Z,3.10
2019-05-05T09:59:16.898Z,5.80
2019-05-05T10:04:13.957Z,5.07
2019-05-05T10:09:10.463Z,4.60
2019-05-05T10:14:06.705Z,5.30
2019-05-05T10:19:04.520Z,5.90
2019-05-05T10:24:04.474Z,6.90
2019-05-05T10:29:01.285Z,5.43
2019-05-05T10:33:59.345Z,5.43
2019-05-05T10:38:57.176Z,4.00
2019-05-05T10:43:54.212Z,5.40
2019-05-05T10:48:50.342Z,4.80
2019-05-05T10:53:46.277Z,4.73
2019-05-05T10:58:44.130Z,4.00
2019-05-05T11:03:40.420Z,4.53
2019-05-05T11:08:36.448Z,4.50
2019-05-05T11:13:34.344Z,4.90
2019-05-05T11:18:30.410Z,4.10
2019-05-05T11:23:26.437Z,5.33
2019-05-05T11:28:22.473Z,3.40
2019-05-05T11:33:34.282Z,4.30
2019-05-05T11:38:30.158Z,4.90
2019-05-05T11:43:26.099Z,6.63
2019-05-05T11:48:24.170Z,5.37
2019-05-05T11:53:22.292Z,6.30
2019-05-05T11:58:18.359Z,6.30
2019-05-05T12:03:23.493Z,6.87
2019-05-05T12:08:19.420Z,5.70
2019-05-05T12:13:15.388Z,5.73
2019-05-05T12:18:11.446Z,6.30
2019-05-05T12:23:08.225Z,5.20
2019-05-05T12:28:06.485Z,6.60
2019-05-05T12:33:04.769Z,5.03
2019-05-05T12:38:00.996Z,5.97
2019-05-05T12:42:56.926Z,5.10
2019-05-05T12:48:18.365Z,5.13
2019-05-05T12:53:15.112Z,5.73
2019-05-05T12:58:18.914Z,5.20
2019-05-05T13:03:23.983Z,5.23
2019-05-05T13:08:29.105Z,5.70
2019-05-05T13:13:27.335Z,6.27
2019-05-05T13:18:25.236Z,5.10
2019-05-05T13:23:23.835Z,4.83
2019-05-05T13:28:20.493Z,5.87
2019-05-05T13:33:16.567Z,5.60
2019-05-05T13:38:14.466Z,5.20
2019-05-05T13:43:10.464Z,4.93
2019-05-05T13:48:06.767Z,5.07
2019-05-05T13:53:05.663Z,5.27
2019-05-05T13:58:04.477Z,4.87
2019-05-05T14:03:00.512Z,4.03
2019-05-05T14:07:56.545Z,1.90
2019-05-05T14:12:55.178Z,2.93
2019-05-05T14:17:51.212Z,2.80
2019-05-05T14:22:47.349Z,5.07
2019-05-05T14:27:43.631Z,4.47
2019-05-05T14:32:41.532Z,4.00
2019-05-05T14:37:39.505Z,4.37
2019-05-05T14:42:35.463Z,4.33
2019-05-05T14:47:33.460Z,4.37
2019-05-05T14:52:29.318Z,4.33
2019-05-05T14:57:28.100Z,5.17
2019-05-05T15:02:24.595Z,4.80
2019-05-05T15:07:25.446Z,4.80
2019-05-05T15:12:23.792Z,4.87
2019-05-05T15:17:19.907Z,4.00
2019-05-05T15:22:15.835Z,4.27
2019-05-05T15:27:11.856Z,3.80
2019-05-05T15:32:07.786Z,5.83
2019-05-05T15:37:03.992Z,4.27
2019-05-05T15:42:00.062Z,4.60
2019-05-05T15:46:58.011Z,4.07
2019-05-05T15:51:54.060Z,3.60
2019-05-05T15:57:02.964Z,3.87
2019-05-05T16:01:48.481Z,3.73
2019-05-05T16:06:44.589Z,4.13
2019-05-05T16:11:40.598Z,3.50
2019-05-05T16:16:56.483Z,4.30
2019-05-05T16:21:54.489Z,4.50
2019-05-05T16:26:51.053Z,4.63
2019-05-05T16:31:46.956Z,4.50
2019-05-05T16:36:44.007Z,4.90
2019-05-05T16:41:40.328Z,4.30
2019-05-05T16:46:36.265Z,4.50
2019-05-05T16:51:35.001Z,4.27
2019-05-05T16:56:38.884Z,3.70
2019-05-05T17:01:35.741Z,4.07
2019-05-05T17:06:31.874Z,4.57
2019-05-05T17:11:27.903Z,3.60
2019-05-05T17:16:28.265Z,2.40
2019-05-05T17:26:43.771Z,2.60
2019-05-05T17:31:39.764Z,2.97
2019-05-05T17:36:35.761Z,3.40
2019-05-05T17:41:49.029Z,3.37
2019-05-05T17:47:04.481Z,3.00
2019-05-05T17:52:03.688Z,2.60
2019-05-05T17:57:00.422Z,3.00
2019-05-05T18:01:56.404Z,3.37
2019-05-05T18:06:54.247Z,3.47
2019-05-05T18:11:53.605Z,3.90
2019-05-05T18:16:49.603Z,4.60
2019-05-05T18:21:45.752Z,3.83
2019-05-05T18:26:43.573Z,3.83
2019-05-05T18:31:39.689Z,3.47
2019-05-05T18:36:35.608Z,4.67
2019-05-05T18:41:39.249Z,4.70
2019-05-05T18:46:35.168Z,4.90
2019-05-05T18:51:31.062Z,5.10
2019-05-05T18:56:27.898Z,3.60
2019-05-05T19:01:34.626Z,3.90
2019-05-05T19:06:49.524Z,2.33
2019-05-05T19:11:45.483Z,5.03
2019-05-05T19:16:41.407Z,3.43
2019-05-05T19:21:39.195Z,3.53
2019-05-05T19:26:37.140Z,3.83
2019-05-05T19:31:36.556Z,3.87
2019-05-05T19:36:34.301Z,4.50
2019-05-05T19:41:30.349Z,4.07
2019-05-05T19:46:28.174Z,5.43
2019-05-05T19:51:24.111Z,3.70
2019-05-05T19:56:23.521Z,3.57
2019-05-05T20:01:34.209Z,4.10
2019-05-05T20:06:19.330Z,4.10
2019-05-05T20:11:15.248Z,4.20
2019-05-05T20:16:18.926Z,5.03
2019-05-05T20:21:14.940Z,4.03
2019-05-05T20:26:28.864Z,4.43
2019-05-05T20:31:24.973Z,5.30
2019-05-05T20:36:23.777Z,5.33
2019-05-05T20:41:21.017Z,5.70
2019-05-05T20:46:17.337Z,5.07
2019-05-05T20:51:13.891Z,4.60
2019-05-05T20:56:15.299Z,6.17
2019-05-05T21:01:13.847Z,5.90
2019-05-05T21:06:09.320Z,6.60
2019-05-05T21:11:05.352Z,5.73
2019-05-05T21:16:01.275Z,5.70
2019-05-05T21:20:59.196Z,5.43
2019-05-05T21:25:57.557Z,5.60
2019-05-05T21:30:54.091Z,6.63
2019-05-05T21:35:50.115Z,5.57
2019-05-05T21:40:46.111Z,6.67
2019-05-05T21:45:44.328Z,5.37
2019-05-05T21:50:42.011Z,5.90
2019-05-05T21:55:43.921Z,6.03
2019-05-05T22:05:53.965Z,6.33
2019-05-05T22:10:51.576Z,5.77
2019-05-05T22:15:47.577Z,6.70
2019-05-05T22:20:48.594Z,6.23
2019-05-05T22:25:44.617Z,6.30
2019-05-05T22:30:40.543Z,7.70
2019-05-05T22:35:36.598Z,7.10
2019-05-05T22:40:34.639Z,7.37
2019-05-05T22:45:30.563Z,6.77
2019-05-05T22:50:26.589Z,7.40
2019-05-05T22:55:24.583Z,7.30
2019-05-05T23:00:28.336Z,7.90
2019-05-05T23:05:24.622Z,8.13
2019-05-05T23:10:20.662Z,7.43
2019-05-05T23:15:16.791Z,6.67
2019-05-05T23:20:41.125Z,7.50
2019-05-05T23:25:45.596Z,7.30
2019-05-05T23:30:41.948Z,7.60
2019-05-05T23:35:37.676Z,7.60
2019-05-05T23:40:33.958Z,8.40
2019-05-05T23:45:30.137Z,8.00
2019-05-05T23:50:26.158Z,7.40
2019-05-05T23:55:24.013Z,8.70
